sensor_id;sensor_type;location;lat;lon;timestamp;P1;durP1;ratioP1;P2;durP2;ratioP2
74152;SDS011;62505;46.070;14.492;2023-04-25T00:01:39;3.25;;;2.78;;
74152;SDS011;62505;46.070;14.492;2023-04-25T00:04:06;3.63;;;2.85;;
74152;SDS011;62505;46.070;14.492;2023-04-25T00:06:34;3.85;;;2.95;;
74152;SDS011;62505;46.070;14.492;2023-04-25T00:09:02;6.00;;;3.15;;
74152;SDS011;62505;46.070;14.492;2023-04-25T00:11:33;4.63;;;3.15;;
74152;SDS011;62505;46.070;14.492;2023-04-25T00:14:00;3.63;;;2.70;;
74152;SDS011;62505;46.070;14.492;2023-04-25T00:16:27;4.53;;;3.40;;
74152;SDS011;62505;46.070;14.492;2023-04-25T00:18:58;4.18;;;2.80;;
74152;SDS011;62505;46.070;14.492;2023-04-25T00:21:26;3.13;;;2.55;;
74152;SDS011;62505;46.070;14.492;2023-04-25T00:23:53;3.92;;;2.97;;
74152;SDS011;62505;46.070;14.492;2023-04-25T00:26:20;3.50;;;2.97;;
74152;SDS011;62505;46.070;14.492;2023-04-25T00:28:49;3.70;;;2.92;;
74152;SDS011;62505;46.070;14.492;2023-04-25T00:31:15;3.28;;;2.70;;
74152;SDS011;62505;46.070;14.492;2023-04-25T00:33:42;4.63;;;3.35;;
74152;SDS011;62505;46.070;14.492;2023-04-25T00:36:09;2.80;;;2.55;;
74152;SDS011;62505;46.070;14.492;2023-04-25T00:38:36;4.03;;;2.83;;
74152;SDS011;62505;46.070;14.492;2023-04-25T00:41:04;3.33;;;3.03;;
74152;SDS011;62505;46.070;14.492;2023-04-25T00:43:32;3.35;;;2.90;;
74152;SDS011;62505;46.070;14.492;2023-04-25T00:46:01;3.63;;;2.80;;
74152;SDS011;62505;46.070;14.492;2023-04-25T00:48:28;2.90;;;2.40;;
74152;SDS011;62505;46.070;14.492;2023-04-25T00:50:56;4.05;;;3.10;;
74152;SDS011;62505;46.070;14.492;2023-04-25T00:53:25;3.28;;;2.53;;
74152;SDS011;62505;46.070;14.492;2023-04-25T00:55:53;3.65;;;3.05;;
74152;SDS011;62505;46.070;14.492;2023-04-25T00:58:21;4.47;;;2.78;;
74152;SDS011;62505;46.070;14.492;2023-04-25T01:00:49;4.15;;;2.90;;
74152;SDS011;62505;46.070;14.492;2023-04-25T01:03:19;2.47;;;2.28;;
74152;SDS011;62505;46.070;14.492;2023-04-25T01:05:47;2.83;;;2.50;;
74152;SDS011;62505;46.070;14.492;2023-04-25T01:08:14;3.83;;;2.80;;
74152;SDS011;62505;46.070;14.492;2023-04-25T01:10:41;2.95;;;2.47;;
74152;SDS011;62505;46.070;14.492;2023-04-25T01:13:08;4.68;;;2.88;;
74152;SDS011;62505;46.070;14.492;2023-04-25T01:15:35;3.28;;;2.80;;
74152;SDS011;62505;46.070;14.492;2023-04-25T01:18:02;3.83;;;2.55;;
74152;SDS011;62505;46.070;14.492;2023-04-25T01:20:32;3.72;;;2.72;;
74152;SDS011;62505;46.070;14.492;2023-04-25T01:23:01;3.00;;;2.70;;
74152;SDS011;62505;46.070;14.492;2023-04-25T01:25:29;3.95;;;2.60;;
74152;SDS011;62505;46.070;14.492;2023-04-25T01:27:56;3.25;;;2.65;;
74152;SDS011;62505;46.070;14.492;2023-04-25T01:30:24;3.10;;;2.75;;
74152;SDS011;62505;46.070;14.492;2023-04-25T01:32:52;3.40;;;2.70;;
74152;SDS011;62505;46.070;14.492;2023-04-25T01:35:21;3.25;;;2.83;;
74152;SDS011;62505;46.070;14.492;2023-04-25T01:37:50;4.97;;;2.60;;
74152;SDS011;62505;46.070;14.492;2023-04-25T01:40:19;3.03;;;2.60;;
74152;SDS011;62505;46.070;14.492;2023-04-25T01:42:48;4.25;;;2.75;;
74152;SDS011;62505;46.070;14.492;2023-04-25T01:45:15;3.17;;;2.47;;
74152;SDS011;62505;46.070;14.492;2023-04-25T01:47:42;4.38;;;2.80;;
74152;SDS011;62505;46.070;14.492;2023-04-25T01:50:14;4.18;;;2.80;;
74152;SDS011;62505;46.070;14.492;2023-04-25T01:52:42;3.72;;;2.95;;
74152;SDS011;62505;46.070;14.492;2023-04-25T01:55:09;3.30;;;2.90;;
74152;SDS011;62505;46.070;14.492;2023-04-25T01:57:38;3.38;;;2.70;;
74152;SDS011;62505;46.070;14.492;2023-04-25T02:00:06;3.58;;;3.00;;
74152;SDS011;62505;46.070;14.492;2023-04-25T02:02:35;2.67;;;2.30;;
74152;SDS011;62505;46.070;14.492;2023-04-25T02:05:02;3.53;;;2.50;;
74152;SDS011;62505;46.070;14.492;2023-04-25T02:07:29;3.58;;;2.70;;
74152;SDS011;62505;46.070;14.492;2023-04-25T02:09:56;2.97;;;2.30;;
74152;SDS011;62505;46.070;14.492;2023-04-25T02:12:23;3.40;;;2.53;;
74152;SDS011;62505;46.070;14.492;2023-04-25T02:14:52;4.38;;;2.67;;
74152;SDS011;62505;46.070;14.492;2023-04-25T02:17:19;3.75;;;2.83;;
74152;SDS011;62505;46.070;14.492;2023-04-25T02:19:47;2.53;;;2.33;;
74152;SDS011;62505;46.070;14.492;2023-04-25T02:22:15;5.30;;;3.22;;
74152;SDS011;62505;46.070;14.492;2023-04-25T02:24:42;3.00;;;2.60;;
74152;SDS011;62505;46.070;14.492;2023-04-25T02:27:09;3.83;;;2.70;;
74152;SDS011;62505;46.070;14.492;2023-04-25T02:29:36;3.00;;;2.53;;
74152;SDS011;62505;46.070;14.492;2023-04-25T02:32:04;3.97;;;2.50;;
74152;SDS011;62505;46.070;14.492;2023-04-25T02:34:31;3.40;;;2.20;;
74152;SDS011;62505;46.070;14.492;2023-04-25T02:36:58;3.00;;;2.70;;
74152;SDS011;62505;46.070;14.492;2023-04-25T02:39:25;3.05;;;2.50;;
74152;SDS011;62505;46.070;14.492;2023-04-25T02:41:52;3.00;;;2.63;;
74152;SDS011;62505;46.070;14.492;2023-04-25T02:44:19;3.25;;;2.80;;
74152;SDS011;62505;46.070;14.492;2023-04-25T02:46:46;3.13;;;2.60;;
74152;SDS011;62505;46.070;14.492;2023-04-25T02:49:14;3.63;;;2.70;;
74152;SDS011;62505;46.070;14.492;2023-04-25T02:51:41;4.05;;;2.38;;
74152;SDS011;62505;46.070;14.492;2023-04-25T02:54:08;3.33;;;2.80;;
74152;SDS011;62505;46.070;14.492;2023-04-25T02:56:35;3.20;;;2.20;;
74152;SDS011;62505;46.070;14.492;2023-04-25T02:59:02;3.40;;;2.47;;
74152;SDS011;62505;46.070;14.492;2023-04-25T03:01:29;4.75;;;2.75;;
74152;SDS011;62505;46.070;14.492;2023-04-25T03:03:56;2.95;;;2.55;;
74152;SDS011;62505;46.070;14.492;2023-04-25T03:06:25;2.97;;;2.42;;
74152;SDS011;62505;46.070;14.492;2023-04-25T03:08:52;3.25;;;2.90;;
74152;SDS011;62505;46.070;14.492;2023-04-25T03:11:19;2.72;;;2.28;;
74152;SDS011;62505;46.070;14.492;2023-04-25T03:13:46;3.72;;;2.53;;
74152;SDS011;62505;46.070;14.492;2023-04-25T03:16:13;3.60;;;2.65;;
74152;SDS011;62505;46.070;14.492;2023-04-25T03:18:40;3.38;;;2.67;;
74152;SDS011;62505;46.070;14.492;2023-04-25T03:21:07;3.47;;;2.47;;
74152;SDS011;62505;46.070;14.492;2023-04-25T03:23:36;3.03;;;2.60;;
74152;SDS011;62505;46.070;14.492;2023-04-25T03:26:03;3.78;;;2.33;;
74152;SDS011;62505;46.070;14.492;2023-04-25T03:28:30;3.22;;;2.45;;
74152;SDS011;62505;46.070;14.492;2023-04-25T03:30:57;2.88;;;2.40;;
74152;SDS011;62505;46.070;14.492;2023-04-25T03:33:24;2.92;;;2.47;;
74152;SDS011;62505;46.070;14.492;2023-04-25T03:35:51;2.42;;;2.22;;
74152;SDS011;62505;46.070;14.492;2023-04-25T03:38:18;4.25;;;2.60;;
74152;SDS011;62505;46.070;14.492;2023-04-25T03:40:46;3.70;;;2.63;;
74152;SDS011;62505;46.070;14.492;2023-04-25T03:43:13;4.07;;;2.72;;
74152;SDS011;62505;46.070;14.492;2023-04-25T03:45:40;3.97;;;2.55;;
74152;SDS011;62505;46.070;14.492;2023-04-25T03:48:07;2.88;;;2.58;;
74152;SDS011;62505;46.070;14.492;2023-04-25T03:50:34;3.67;;;2.33;;
74152;SDS011;62505;46.070;14.492;2023-04-25T03:53:01;3.63;;;2.28;;
74152;SDS011;62505;46.070;14.492;2023-04-25T03:55:28;4.05;;;2.80;;
74152;SDS011;62505;46.070;14.492;2023-04-25T03:57:57;2.80;;;2.20;;
74152;SDS011;62505;46.070;14.492;2023-04-25T04:00:24;4.07;;;2.40;;
74152;SDS011;62505;46.070;14.492;2023-04-25T04:02:51;2.92;;;2.50;;
74152;SDS011;62505;46.070;14.492;2023-04-25T04:05:18;3.80;;;2.50;;
74152;SDS011;62505;46.070;14.492;2023-04-25T04:07:45;2.88;;;2.35;;
74152;SDS011;62505;46.070;14.492;2023-04-25T04:10:12;3.03;;;2.55;;
74152;SDS011;62505;46.070;14.492;2023-04-25T04:12:39;3.53;;;2.65;;
74152;SDS011;62505;46.070;14.492;2023-04-25T04:15:08;2.72;;;2.40;;
74152;SDS011;62505;46.070;14.492;2023-04-25T04:17:37;3.13;;;2.28;;
74152;SDS011;62505;46.070;14.492;2023-04-25T04:20:04;2.58;;;2.28;;
74152;SDS011;62505;46.070;14.492;2023-04-25T04:22:33;4.90;;;2.28;;
74152;SDS011;62505;46.070;14.492;2023-04-25T04:25:00;3.08;;;2.22;;
74152;SDS011;62505;46.070;14.492;2023-04-25T04:27:28;2.58;;;2.20;;
74152;SDS011;62505;46.070;14.492;2023-04-25T04:29:55;3.38;;;2.17;;
74152;SDS011;62505;46.070;14.492;2023-04-25T04:32:24;2.78;;;2.30;;
74152;SDS011;62505;46.070;14.492;2023-04-25T04:34:52;3.38;;;2.55;;
74152;SDS011;62505;46.070;14.492;2023-04-25T04:37:20;2.83;;;2.15;;
74152;SDS011;62505;46.070;14.492;2023-04-25T04:39:47;3.45;;;2.53;;
74152;SDS011;62505;46.070;14.492;2023-04-25T04:42:14;5.88;;;2.97;;
74152;SDS011;62505;46.070;14.492;2023-04-25T04:44:41;4.50;;;2.83;;
74152;SDS011;62505;46.070;14.492;2023-04-25T04:47:09;5.95;;;4.10;;
74152;SDS011;62505;46.070;14.492;2023-04-25T04:49:39;7.68;;;4.18;;
74152;SDS011;62505;46.070;14.492;2023-04-25T04:52:06;7.75;;;4.40;;
74152;SDS011;62505;46.070;14.492;2023-04-25T04:54:33;6.03;;;4.03;;
74152;SDS011;62505;46.070;14.492;2023-04-25T04:57:00;6.15;;;3.83;;
74152;SDS011;62505;46.070;14.492;2023-04-25T04:59:28;6.47;;;3.60;;
74152;SDS011;62505;46.070;14.492;2023-04-25T05:01:55;6.45;;;4.03;;
74152;SDS011;62505;46.070;14.492;2023-04-25T05:04:22;5.75;;;4.03;;
74152;SDS011;62505;46.070;14.492;2023-04-25T05:06:50;4.78;;;3.08;;
74152;SDS011;62505;46.070;14.492;2023-04-25T05:09:17;6.18;;;3.55;;
74152;SDS011;62505;46.070;14.492;2023-04-25T05:11:45;6.97;;;3.65;;
74152;SDS011;62505;46.070;14.492;2023-04-25T05:14:12;6.15;;;3.42;;
74152;SDS011;62505;46.070;14.492;2023-04-25T05:16:39;7.50;;;3.33;;
74152;SDS011;62505;46.070;14.492;2023-04-25T05:19:06;7.38;;;3.35;;
74152;SDS011;62505;46.070;14.492;2023-04-25T05:21:33;6.78;;;3.83;;
74152;SDS011;62505;46.070;14.492;2023-04-25T05:24:02;4.78;;;2.75;;
74152;SDS011;62505;46.070;14.492;2023-04-25T05:26:29;4.80;;;3.50;;
74152;SDS011;62505;46.070;14.492;2023-04-25T05:28:56;4.80;;;3.53;;
74152;SDS011;62505;46.070;14.492;2023-04-25T05:31:23;7.20;;;3.67;;
74152;SDS011;62505;46.070;14.492;2023-04-25T05:33:50;6.43;;;3.42;;
74152;SDS011;62505;46.070;14.492;2023-04-25T05:36:18;5.40;;;3.38;;
74152;SDS011;62505;46.070;14.492;2023-04-25T05:38:45;5.57;;;3.17;;
74152;SDS011;62505;46.070;14.492;2023-04-25T05:41:13;4.22;;;3.03;;
74152;SDS011;62505;46.070;14.492;2023-04-25T05:43:40;5.43;;;3.35;;
74152;SDS011;62505;46.070;14.492;2023-04-25T05:46:10;4.22;;;3.05;;
74152;SDS011;62505;46.070;14.492;2023-04-25T05:48:37;4.15;;;3.42;;
74152;SDS011;62505;46.070;14.492;2023-04-25T05:51:04;5.22;;;3.40;;
74152;SDS011;62505;46.070;14.492;2023-04-25T05:53:31;5.30;;;3.38;;
74152;SDS011;62505;46.070;14.492;2023-04-25T05:55:58;5.72;;;3.50;;
74152;SDS011;62505;46.070;14.492;2023-04-25T05:58:26;4.07;;;3.03;;
74152;SDS011;62505;46.070;14.492;2023-04-25T06:00:53;3.97;;;3.13;;
74152;SDS011;62505;46.070;14.492;2023-04-25T06:03:20;4.63;;;2.88;;
74152;SDS011;62505;46.070;14.492;2023-04-25T06:05:47;3.83;;;3.22;;
74152;SDS011;62505;46.070;14.492;2023-04-25T06:08:14;6.82;;;3.45;;
74152;SDS011;62505;46.070;14.492;2023-04-25T06:10:41;6.15;;;3.30;;
74152;SDS011;62505;46.070;14.492;2023-04-25T06:13:09;4.90;;;3.20;;
74152;SDS011;62505;46.070;14.492;2023-04-25T06:15:37;5.07;;;3.53;;
74152;SDS011;62505;46.070;14.492;2023-04-25T06:18:04;4.90;;;3.10;;
74152;SDS011;62505;46.070;14.492;2023-04-25T06:20:31;5.25;;;3.25;;
74152;SDS011;62505;46.070;14.492;2023-04-25T06:22:58;4.85;;;2.83;;
74152;SDS011;62505;46.070;14.492;2023-04-25T06:25:25;3.92;;;2.58;;
74152;SDS011;62505;46.070;14.492;2023-04-25T06:27:52;4.82;;;3.40;;
74152;SDS011;62505;46.070;14.492;2023-04-25T06:30:19;7.05;;;3.58;;
74152;SDS011;62505;46.070;14.492;2023-04-25T06:32:49;7.65;;;3.35;;
74152;SDS011;62505;46.070;14.492;2023-04-25T06:35:16;5.40;;;2.97;;
74152;SDS011;62505;46.070;14.492;2023-04-25T06:37:43;4.80;;;3.25;;
74152;SDS011;62505;46.070;14.492;2023-04-25T06:40:10;7.47;;;3.25;;
74152;SDS011;62505;46.070;14.492;2023-04-25T06:42:37;7.82;;;3.67;;
74152;SDS011;62505;46.070;14.492;2023-04-25T06:45:05;5.75;;;3.45;;
74152;SDS011;62505;46.070;14.492;2023-04-25T06:47:32;7.63;;;3.88;;
74152;SDS011;62505;46.070;14.492;2023-04-25T06:50:01;7.25;;;2.90;;
74152;SDS011;62505;46.070;14.492;2023-04-25T06:52:28;5.05;;;3.47;;
74152;SDS011;62505;46.070;14.492;2023-04-25T06:54:55;4.53;;;2.72;;
74152;SDS011;62505;46.070;14.492;2023-04-25T06:57:22;5.20;;;3.30;;
74152;SDS011;62505;46.070;14.492;2023-04-25T06:59:49;5.47;;;3.40;;
74152;SDS011;62505;46.070;14.492;2023-04-25T07:02:16;8.35;;;3.38;;
74152;SDS011;62505;46.070;14.492;2023-04-25T07:04:43;4.85;;;3.10;;
74152;SDS011;62505;46.070;14.492;2023-04-25T07:07:12;6.22;;;3.30;;
74152;SDS011;62505;46.070;14.492;2023-04-25T07:09:39;4.88;;;3.10;;
74152;SDS011;62505;46.070;14.492;2023-04-25T07:12:06;5.68;;;2.88;;
74152;SDS011;62505;46.070;14.492;2023-04-25T07:14:33;3.63;;;2.60;;
74152;SDS011;62505;46.070;14.492;2023-04-25T07:17:00;5.90;;;3.47;;
74152;SDS011;62505;46.070;14.492;2023-04-25T07:19:27;5.57;;;3.22;;
74152;SDS011;62505;46.070;14.492;2023-04-25T07:21:54;6.60;;;3.00;;
74152;SDS011;62505;46.070;14.492;2023-04-25T07:24:23;5.60;;;2.90;;
74152;SDS011;62505;46.070;14.492;2023-04-25T07:26:50;6.15;;;2.80;;
74152;SDS011;62505;46.070;14.492;2023-04-25T07:29:17;7.10;;;2.92;;
74152;SDS011;62505;46.070;14.492;2023-04-25T07:31:44;3.70;;;3.17;;
74152;SDS011;62505;46.070;14.492;2023-04-25T07:34:11;4.97;;;2.90;;
74152;SDS011;62505;46.070;14.492;2023-04-25T07:36:38;5.05;;;2.65;;
74152;SDS011;62505;46.070;14.492;2023-04-25T07:39:05;5.43;;;2.90;;
74152;SDS011;62505;46.070;14.492;2023-04-25T07:41:35;4.55;;;2.83;;
74152;SDS011;62505;46.070;14.492;2023-04-25T07:44:02;6.00;;;3.00;;
74152;SDS011;62505;46.070;14.492;2023-04-25T07:46:29;5.35;;;3.05;;
74152;SDS011;62505;46.070;14.492;2023-04-25T07:48:56;6.28;;;2.95;;
74152;SDS011;62505;46.070;14.492;2023-04-25T07:51:23;3.95;;;3.08;;
74152;SDS011;62505;46.070;14.492;2023-04-25T07:53:51;7.90;;;2.88;;
74152;SDS011;62505;46.070;14.492;2023-04-25T07:56:17;7.32;;;3.05;;
74152;SDS011;62505;46.070;14.492;2023-04-25T07:58:46;8.38;;;3.00;;
74152;SDS011;62505;46.070;14.492;2023-04-25T08:01:13;5.82;;;2.55;;
74152;SDS011;62505;46.070;14.492;2023-04-25T08:03:40;5.07;;;2.70;;
74152;SDS011;62505;46.070;14.492;2023-04-25T08:06:07;4.28;;;2.83;;
74152;SDS011;62505;46.070;14.492;2023-04-25T08:08:34;4.20;;;2.70;;
74152;SDS011;62505;46.070;14.492;2023-04-25T08:11:01;7.60;;;3.13;;
74152;SDS011;62505;46.070;14.492;2023-04-25T08:13:28;3.33;;;2.55;;
74152;SDS011;62505;46.070;14.492;2023-04-25T08:15:56;5.97;;;2.90;;
74152;SDS011;62505;46.070;14.492;2023-04-25T08:18:23;3.90;;;2.88;;
74152;SDS011;62505;46.070;14.492;2023-04-25T08:20:50;3.85;;;2.78;;
74152;SDS011;62505;46.070;14.492;2023-04-25T08:23:17;5.80;;;3.03;;
74152;SDS011;62505;46.070;14.492;2023-04-25T08:25:44;3.85;;;3.05;;
74152;SDS011;62505;46.070;14.492;2023-04-25T08:28:11;3.85;;;2.80;;
74152;SDS011;62505;46.070;14.492;2023-04-25T08:30:38;7.82;;;3.22;;
74152;SDS011;62505;46.070;14.492;2023-04-25T08:33:07;5.45;;;2.88;;
74152;SDS011;62505;46.070;14.492;2023-04-25T08:35:34;4.13;;;3.08;;
74152;SDS011;62505;46.070;14.492;2023-04-25T08:38:01;5.68;;;3.03;;
74152;SDS011;62505;46.070;14.492;2023-04-25T08:40:28;6.05;;;3.10;;
74152;SDS011;62505;46.070;14.492;2023-04-25T08:42:55;7.00;;;3.30;;
74152;SDS011;62505;46.070;14.492;2023-04-25T08:45:24;5.97;;;2.53;;
74152;SDS011;62505;46.070;14.492;2023-04-25T08:47:53;6.43;;;3.03;;
74152;SDS011;62505;46.070;14.492;2023-04-25T08:50:24;5.30;;;2.90;;
74152;SDS011;62505;46.070;14.492;2023-04-25T08:52:51;3.88;;;3.00;;
74152;SDS011;62505;46.070;14.492;2023-04-25T08:55:21;4.88;;;3.05;;
74152;SDS011;62505;46.070;14.492;2023-04-25T08:57:48;4.47;;;3.10;;
74152;SDS011;62505;46.070;14.492;2023-04-25T09:00:16;5.80;;;3.13;;
74152;SDS011;62505;46.070;14.492;2023-04-25T09:02:45;4.43;;;3.13;;
74152;SDS011;62505;46.070;14.492;2023-04-25T09:05:13;7.72;;;3.17;;
74152;SDS011;62505;46.070;14.492;2023-04-25T09:07:42;4.70;;;2.92;;
74152;SDS011;62505;46.070;14.492;2023-04-25T09:10:09;4.40;;;2.22;;
74152;SDS011;62505;46.070;14.492;2023-04-25T09:12:36;3.72;;;2.80;;
74152;SDS011;62505;46.070;14.492;2023-04-25T09:15:04;4.82;;;3.03;;
74152;SDS011;62505;46.070;14.492;2023-04-25T09:17:32;6.15;;;3.28;;
74152;SDS011;62505;46.070;14.492;2023-04-25T09:20:06;4.50;;;2.90;;
74152;SDS011;62505;46.070;14.492;2023-04-25T09:22:34;4.50;;;3.15;;
74152;SDS011;62505;46.070;14.492;2023-04-25T09:25:07;4.72;;;3.00;;
74152;SDS011;62505;46.070;14.492;2023-04-25T09:27:35;3.92;;;2.72;;
74152;SDS011;62505;46.070;14.492;2023-04-25T09:30:02;6.07;;;3.15;;
74152;SDS011;62505;46.070;14.492;2023-04-25T09:32:30;7.32;;;2.70;;
74152;SDS011;62505;46.070;14.492;2023-04-25T09:34:57;5.55;;;2.97;;
74152;SDS011;62505;46.070;14.492;2023-04-25T09:37:24;6.20;;;3.40;;
74152;SDS011;62505;46.070;14.492;2023-04-25T09:39:53;6.97;;;3.25;;
74152;SDS011;62505;46.070;14.492;2023-04-25T09:42:26;5.18;;;3.17;;
74152;SDS011;62505;46.070;14.492;2023-04-25T09:44:54;4.85;;;3.10;;
74152;SDS011;62505;46.070;14.492;2023-04-25T09:47:22;4.72;;;2.90;;
74152;SDS011;62505;46.070;14.492;2023-04-25T09:49:50;4.20;;;3.10;;
74152;SDS011;62505;46.070;14.492;2023-04-25T09:52:18;3.78;;;2.80;;
74152;SDS011;62505;46.070;14.492;2023-04-25T09:54:46;4.65;;;2.88;;
74152;SDS011;62505;46.070;14.492;2023-04-25T09:57:16;5.22;;;3.03;;
74152;SDS011;62505;46.070;14.492;2023-04-25T09:59:45;6.57;;;3.10;;
74152;SDS011;62505;46.070;14.492;2023-04-25T10:02:14;3.83;;;2.75;;
74152;SDS011;62505;46.070;14.492;2023-04-25T10:04:42;4.82;;;2.97;;
74152;SDS011;62505;46.070;14.492;2023-04-25T10:07:13;4.53;;;2.83;;
74152;SDS011;62505;46.070;14.492;2023-04-25T10:09:40;3.50;;;2.78;;
74152;SDS011;62505;46.070;14.492;2023-04-25T10:12:10;4.97;;;2.70;;
74152;SDS011;62505;46.070;14.492;2023-04-25T10:14:37;3.50;;;2.72;;
74152;SDS011;62505;46.070;14.492;2023-04-25T10:17:07;4.93;;;2.80;;
74152;SDS011;62505;46.070;14.492;2023-04-25T10:19:37;4.43;;;2.58;;
74152;SDS011;62505;46.070;14.492;2023-04-25T10:22:07;5.35;;;2.67;;
74152;SDS011;62505;46.070;14.492;2023-04-25T10:24:38;5.28;;;2.80;;
74152;SDS011;62505;46.070;14.492;2023-04-25T10:27:06;3.47;;;2.90;;
74152;SDS011;62505;46.070;14.492;2023-04-25T10:29:33;4.03;;;3.17;;
74152;SDS011;62505;46.070;14.492;2023-04-25T10:32:02;3.70;;;2.88;;
74152;SDS011;62505;46.070;14.492;2023-04-25T10:34:41;4.82;;;2.97;;
74152;SDS011;62505;46.070;14.492;2023-04-25T10:37:12;4.60;;;3.05;;
74152;SDS011;62505;46.070;14.492;2023-04-25T10:39:39;3.72;;;2.88;;
74152;SDS011;62505;46.070;14.492;2023-04-25T10:42:07;4.30;;;2.72;;
74152;SDS011;62505;46.070;14.492;2023-04-25T10:44:34;3.83;;;3.20;;
74152;SDS011;62505;46.070;14.492;2023-04-25T10:47:03;4.78;;;3.30;;
74152;SDS011;62505;46.070;14.492;2023-04-25T10:49:34;4.10;;;3.08;;
74152;SDS011;62505;46.070;14.492;2023-04-25T10:52:17;4.70;;;2.85;;
74152;SDS011;62505;46.070;14.492;2023-04-25T10:54:48;3.30;;;2.70;;
74152;SDS011;62505;46.070;14.492;2023-04-25T10:57:30;4.78;;;3.30;;
74152;SDS011;62505;46.070;14.492;2023-04-25T11:00:06;3.88;;;2.90;;
74152;SDS011;62505;46.070;14.492;2023-04-25T11:02:42;5.70;;;3.20;;
74152;SDS011;62505;46.070;14.492;2023-04-25T11:05:18;5.47;;;3.33;;
74152;SDS011;62505;46.070;14.492;2023-04-25T11:07:53;3.13;;;2.38;;
74152;SDS011;62505;46.070;14.492;2023-04-25T11:10:24;3.72;;;2.90;;
74152;SDS011;62505;46.070;14.492;2023-04-25T11:12:52;8.00;;;3.67;;
74152;SDS011;62505;46.070;14.492;2023-04-25T11:15:19;3.72;;;2.97;;
74152;SDS011;62505;46.070;14.492;2023-04-25T11:17:46;5.10;;;3.10;;
74152;SDS011;62505;46.070;14.492;2023-04-25T11:20:13;8.52;;;3.47;;
74152;SDS011;62505;46.070;14.492;2023-04-25T11:22:41;5.53;;;3.58;;
74152;SDS011;62505;46.070;14.492;2023-04-25T11:25:12;7.05;;;3.20;;
74152;SDS011;62505;46.070;14.492;2023-04-25T11:27:49;4.38;;;3.00;;
74152;SDS011;62505;46.070;14.492;2023-04-25T11:30:17;4.88;;;3.10;;
74152;SDS011;62505;46.070;14.492;2023-04-25T11:32:44;8.20;;;2.85;;
74152;SDS011;62505;46.070;14.492;2023-04-25T11:35:12;6.43;;;3.15;;
74152;SDS011;62505;46.070;14.492;2023-04-25T11:37:40;5.00;;;3.20;;
74152;SDS011;62505;46.070;14.492;2023-04-25T11:40:08;4.35;;;3.28;;
74152;SDS011;62505;46.070;14.492;2023-04-25T11:42:38;4.80;;;3.03;;
74152;SDS011;62505;46.070;14.492;2023-04-25T11:45:09;5.03;;;3.03;;
74152;SDS011;62505;46.070;14.492;2023-04-25T11:47:37;7.32;;;3.22;;
74152;SDS011;62505;46.070;14.492;2023-04-25T11:50:04;4.55;;;3.30;;
74152;SDS011;62505;46.070;14.492;2023-04-25T11:52:37;3.83;;;3.00;;
74152;SDS011;62505;46.070;14.492;2023-04-25T11:55:06;7.63;;;3.20;;
74152;SDS011;62505;46.070;14.492;2023-04-25T11:57:34;4.10;;;3.03;;
74152;SDS011;62505;46.070;14.492;2023-04-25T12:00:10;4.85;;;3.05;;
74152;SDS011;62505;46.070;14.492;2023-04-25T12:02:42;6.47;;;3.15;;
74152;SDS011;62505;46.070;14.492;2023-04-25T12:05:09;3.63;;;2.67;;
74152;SDS011;62505;46.070;14.492;2023-04-25T12:07:37;5.10;;;3.08;;
74152;SDS011;62505;46.070;14.492;2023-04-25T12:10:06;3.97;;;3.33;;
74152;SDS011;62505;46.070;14.492;2023-04-25T12:12:34;5.70;;;2.95;;
74152;SDS011;62505;46.070;14.492;2023-04-25T12:15:11;7.63;;;2.80;;
74152;SDS011;62505;46.070;14.492;2023-04-25T12:17:40;5.15;;;3.05;;
74152;SDS011;62505;46.070;14.492;2023-04-25T12:20:09;5.03;;;3.03;;
74152;SDS011;62505;46.070;14.492;2023-04-25T12:22:37;5.35;;;2.85;;
74152;SDS011;62505;46.070;14.492;2023-04-25T12:25:04;5.18;;;3.17;;
74152;SDS011;62505;46.070;14.492;2023-04-25T12:27:32;7.28;;;2.75;;
74152;SDS011;62505;46.070;14.492;2023-04-25T12:30:01;5.85;;;3.65;;
74152;SDS011;62505;46.070;14.492;2023-04-25T12:32:30;8.63;;;3.33;;
74152;SDS011;62505;46.070;14.492;2023-04-25T12:34:57;4.90;;;2.78;;
74152;SDS011;62505;46.070;14.492;2023-04-25T12:37:24;5.88;;;3.30;;
74152;SDS011;62505;46.070;14.492;2023-04-25T12:39:51;4.38;;;3.13;;
74152;SDS011;62505;46.070;14.492;2023-04-25T12:42:18;3.92;;;2.88;;
74152;SDS011;62505;46.070;14.492;2023-04-25T12:44:45;3.63;;;2.85;;
74152;SDS011;62505;46.070;14.492;2023-04-25T12:47:12;3.58;;;3.10;;
74152;SDS011;62505;46.070;14.492;2023-04-25T12:49:41;5.10;;;2.90;;
74152;SDS011;62505;46.070;14.492;2023-04-25T12:52:08;6.38;;;2.83;;
74152;SDS011;62505;46.070;14.492;2023-04-25T12:54:35;5.85;;;3.13;;
74152;SDS011;62505;46.070;14.492;2023-04-25T12:57:03;5.28;;;3.58;;
74152;SDS011;62505;46.070;14.492;2023-04-25T12:59:30;4.57;;;3.30;;
74152;SDS011;62505;46.070;14.492;2023-04-25T13:01:57;4.28;;;3.13;;
74152;SDS011;62505;46.070;14.492;2023-04-25T13:04:25;8.65;;;2.67;;
74152;SDS011;62505;46.070;14.492;2023-04-25T13:06:53;3.00;;;2.55;;
74152;SDS011;62505;46.070;14.492;2023-04-25T13:09:21;5.10;;;2.88;;
74152;SDS011;62505;46.070;14.492;2023-04-25T13:11:48;6.07;;;3.15;;
74152;SDS011;62505;46.070;14.492;2023-04-25T13:14:15;7.40;;;3.00;;
74152;SDS011;62505;46.070;14.492;2023-04-25T13:16:42;6.57;;;3.85;;
74152;SDS011;62505;46.070;14.492;2023-04-25T13:19:09;5.78;;;3.38;;
74152;SDS011;62505;46.070;14.492;2023-04-25T13:21:36;9.98;;;3.25;;
74152;SDS011;62505;46.070;14.492;2023-04-25T13:24:05;5.90;;;2.90;;
74152;SDS011;62505;46.070;14.492;2023-04-25T13:26:32;5.07;;;2.80;;
74152;SDS011;62505;46.070;14.492;2023-04-25T13:28:59;5.43;;;2.95;;
74152;SDS011;62505;46.070;14.492;2023-04-25T13:31:28;4.25;;;2.85;;
74152;SDS011;62505;46.070;14.492;2023-04-25T13:33:55;4.65;;;3.38;;
74152;SDS011;62505;46.070;14.492;2023-04-25T13:36:22;4.20;;;2.80;;
74152;SDS011;62505;46.070;14.492;2023-04-25T13:38:50;5.00;;;3.28;;
74152;SDS011;62505;46.070;14.492;2023-04-25T13:41:19;6.50;;;3.20;;
74152;SDS011;62505;46.070;14.492;2023-04-25T13:43:46;7.43;;;3.00;;
74152;SDS011;62505;46.070;14.492;2023-04-25T13:46:13;7.32;;;3.10;;
74152;SDS011;62505;46.070;14.492;2023-04-25T13:48:41;7.85;;;3.33;;
74152;SDS011;62505;46.070;14.492;2023-04-25T13:51:13;4.78;;;2.92;;
74152;SDS011;62505;46.070;14.492;2023-04-25T13:53:41;5.47;;;3.08;;
74152;SDS011;62505;46.070;14.492;2023-04-25T13:56:08;4.50;;;3.22;;
74152;SDS011;62505;46.070;14.492;2023-04-25T13:58:38;3.67;;;2.78;;
74152;SDS011;62505;46.070;14.492;2023-04-25T14:01:05;5.10;;;3.08;;
74152;SDS011;62505;46.070;14.492;2023-04-25T14:03:32;5.38;;;3.03;;
74152;SDS011;62505;46.070;14.492;2023-04-25T14:05:59;5.10;;;3.33;;
74152;SDS011;62505;46.070;14.492;2023-04-25T14:08:26;4.88;;;3.35;;
74152;SDS011;62505;46.070;14.492;2023-04-25T14:10:53;8.30;;;3.30;;
74152;SDS011;62505;46.070;14.492;2023-04-25T14:13:20;3.45;;;2.75;;
74152;SDS011;62505;46.070;14.492;2023-04-25T14:15:49;4.63;;;3.35;;
74152;SDS011;62505;46.070;14.492;2023-04-25T14:18:17;4.57;;;2.80;;
74152;SDS011;62505;46.070;14.492;2023-04-25T14:20:44;4.07;;;2.92;;
74152;SDS011;62505;46.070;14.492;2023-04-25T14:23:11;6.53;;;3.30;;
74152;SDS011;62505;46.070;14.492;2023-04-25T14:25:38;3.83;;;3.05;;
74152;SDS011;62505;46.070;14.492;2023-04-25T14:28:07;4.30;;;2.97;;
74152;SDS011;62505;46.070;14.492;2023-04-25T14:30:34;5.28;;;3.17;;
74152;SDS011;62505;46.070;14.492;2023-04-25T14:33:02;9.13;;;3.67;;
74152;SDS011;62505;46.070;14.492;2023-04-25T14:35:29;7.13;;;3.40;;
74152;SDS011;62505;46.070;14.492;2023-04-25T14:37:56;6.45;;;3.20;;